WBSB/BWN METAR and TAF weather

Enter ICAO airport designator
Station Type Date Time Source
WBSB METAR 2019/11/18 09:00 UTC NOAA

WBSB 180900Z 34003KT 9999 FEW015 FEW016CB BKN280 29/24 Q1008 NOSIG


Station Type Date Time Source
WBSB Decoded METAR 2019/11/18 09:00 UTC NOAA

Brunei Airport, Brunei (WBSB) 04-56N 114-56E 15M
Nov 18, 2019 - 04:00 AM EST / 2019.11.18 0900 UTC
Wind: from the NNW (340 degrees) at 3 MPH (3 KT):0
Visibility: greater than 7 mile(s):0
Sky conditions: mostly cloudy
Weather: Cumulonimbus clouds observed
Temperature: 84 F (29 C)
Dew Point: 75 F (24 C)
Relative Humidity: 74%
Pressure (altimeter): 29.77 in. Hg (1008 hPa)
ob: WBSB 180900Z 34003KT 9999 FEW015 FEW016CB BKN280 29/24 Q1008 NOSIG
cycle: 9

Station Type Date Time Source
WBSB TAF 2019/11/18 06:12 UTC NOAA

TAF WBSB 180450Z 1806/1912 34010KT 9999 SCT015 FEW016CB
TEMPO 1806/1810 5000 TSRA
TEMPO 1814/1818 4000 TSRA
BECMG 1816/1818 14002KT FEW003 FEW015CB BKN140

Example: see airport list